Terminal Aerodrome Forecast
Issued by NWS

Home | Current Version | Previous Version | Text Only | Print | Product List | Glossary On
Versions: 1 2 3 4 5 6 7 8 9 10 11 12 13 14 15 16 17 18 19 20 21 22 23 24
000
FTUS43 KMQT 230500
TAFSAW
TAF
KSAW 230521Z 2306/2406 19007KT 1SM BR OVC002
     FM231400 18010KT P6SM BKN060
     FM232100 18010KT P6SM VCSH BKN025
     FM240200 19004KT P6SM OVC010
      AMD LTD TO CLD VIS AND WIND TIL 231000=

USA.gov is the U.S. government's official web portal to all federal, state and local government web resources and services.